Woodland, Illinois
Current Conditions -  °F | °C
As of 9:35 AM on Monday 22 Dec 2014 (Local Time) from KIKK Reporting Station
Drizzle Drizzle  
Wind Chill: 25°   Ceiling: 4000
Heat Index: 33°   Visibility: 5mi
Dew Point: 31°   Wind: 12mph
Humidity: 91%   Direction: 110°ESE
Pressure: 29.89"   Gusts: NA
Location:  40.71°N, 87.73°W
Report Text: KIKK 221535Z AUTO 11010KT 5SM -DZ SCT031 BKN040 OVC050 01/M01 A2989 RMK AO2 T00071006
Loading
Personal Weather Stations






























Interactive Weather Map New forecast layout! Learn more

10-Day Weather Forecast

Advertisements
Track Severe Weather on mobile